Data from Weather Station test

Home
 
SELECT * FROM wx_data WHERE device_id = 3 AND id > 23350
 
ID
DEVICE_ID
TEMP_IN
TEMP_OUT
HUMID
ATMOS
RAIN
WIND_SPEED
WIND_DIR
TIME
23351  236  181  71  1018  2021-11-11 22:05:03 
23352  236  181  72  1017  2021-11-11 23:05:01 
23353  231  181  72  1017  2021-11-12 00:04:59 
23354  231  183  73  1016  2021-11-12 01:05:02 
23355  230  176  73  1016  2021-11-12 02:05:00 
23356  226  175  74  1016  2021-11-12 03:05:03 
23357  223  175  74  1016  2021-11-12 04:05:01 
23358  221  170  74  1016  2021-11-12 05:05:00 
23359  221  170  74  1018  2021-11-12 06:05:02 
23360  221  181  75  1017  2021-11-12 07:05:01 
23361  224  186  75  1017  2021-11-12 08:05:03 
23362  231  204  74  1018  2021-11-12 09:05:02 
23363  239  214  71  1016  2021-11-12 10:05:00 
23364  241  229  66  1014  2021-12-28 11:01:48 
23365  243  231  66  1014  2021-12-28 11:04:59 
23366  242  231  65  1015  2021-12-28 11:05:14 
23367  245  226  61  1015  2021-12-28 12:01:58 
23368  244  226  62  1014  2021-12-28 12:02:34 
23369  245  231  62  1014  2021-12-28 12:04:47 
23370  244  226  62  1015  2021-12-28 12:05:13 
23371  240  211  62  1015  2021-12-28 13:05:14 
23372  246  230  57  1014  2021-12-28 14:05:12 
23373  254  241  56  1014  2021-12-28 15:05:13 
23374  254  236  52  1013  2021-12-28 16:05:15 
23375  256  221  56  1012  2021-12-28 17:05:13 
23376  243  206  62  1015  2021-12-28 18:05:14 
23377  241  196  63  1015  2021-12-28 19:05:12 
23378  251  183  64  1016  2021-12-28 20:05:13 
23379  246  181  64  1016  2021-12-28 21:05:15 
23380  234  174  66  1017  2021-12-29 00:05:13 
23381  242  174  65  1015  2021-12-29 01:05:15 
23382  240  172  66  1015  2021-12-29 02:05:13 
23383  236  173  66  1016  2021-12-29 03:05:15 
23384  233  170  70  1014  2021-12-29 04:05:13 
23385  232  169  70  1015  2021-12-29 05:05:14 
23386  229  168  70  1015  2021-12-29 06:05:12 
23387  229  176  70  1016  2021-12-29 07:05:14 
23388  218  186  67  1017  2021-12-29 08:05:12 
23389  225  196  64  1017  2021-12-29 09:05:13 
23390  227  201  64  1016  2021-12-29 10:05:15 
23391  236  221  64  1017  2021-12-29 11:05:13 
23392  241  231  63  1016  2021-12-29 12:05:14 
23393  247  231  55  1016  2021-12-29 13:05:12 
23394  260  241  54  1017  2021-12-29 14:05:14 
23395  258  246  51  1015  2021-12-29 15:05:12 
23396  251  241  47  1015  2021-12-29 16:05:14 
23397  254  239  54  1015  2021-12-29 17:05:12 
23398  256  236  53  1015  2021-12-29 18:05:13 
23399  252  221  55  1016  2021-12-29 19:05:15 
23400  246  210  60  1017  2021-12-29 20:05:13 
23401  242  201  61  1018  2021-12-29 21:05:15 
23402  248  199  62  1018  2021-12-29 22:05:12 
23403  240  192  63  1017  2021-12-29 23:05:14 
23404  237  190  63  1017  2021-12-30 00:05:12 
23405  234  180  64  1017  2021-12-30 01:05:14 
23406  229  176  64  1017  2021-12-30 02:05:15 
23407  228  165  65  1016  2021-12-30 03:05:13 
23408  224  162  66  1016  2021-12-30 04:05:15 
23409  221  155  66  1016  2021-12-30 05:05:13 
23410  219  159  66  1016  2021-12-30 06:05:14 
23411  217  170  67  1017  2021-12-30 07:05:12 
23412  236  212  66  1018  2021-12-30 13:05:16 
23413  236  215  64  1018  2021-12-30 14:05:14 
23414  241  216  63  1018  2021-12-30 15:05:12 
23415  246  210  62  1017  2021-12-30 16:05:14 
23416  252  201  62  1018  2021-12-30 17:05:12 
23417  247  191  61  1018  2021-12-30 18:05:14 
23418  248  181  61  1018  2021-12-30 19:05:15 
23419  243  170  61  1018  2021-12-30 20:05:13 
23420  237  168  61  1017  2021-12-30 21:05:15 
23421  236  165  62  1017  2021-12-30 22:05:13 
23422  226  165  62  1018  2021-12-30 23:05:14 
23423  221  160  64  1017  2021-12-31 00:05:12 
23424  221  155  65  1016  2021-12-31 01:05:13 
23425  217  155  66  1015  2021-12-31 02:05:15 
23426  215  155  66  1015  2021-12-31 03:05:13 
23427  211  150  67  1014  2021-12-31 04:05:15 
23428  209  145  67  1013  2021-12-31 05:05:12 
23429  208  140  70  1013  2021-12-31 06:05:14 
23430  209  151  71  1013  2021-12-31 07:05:15 
23431  210  181  66  1013  2021-12-31 08:05:13 
23432  216  216  65  1014  2021-12-31 09:05:15 
23433  229  243  63  1013  2021-12-31 10:05:13 
23434  246  266  61  1014  2021-12-31 11:05:14 
23435  258  271  56  1012  2021-12-31 12:05:16 
23436  263  280  56  1012  2021-12-31 13:05:14 
23437  270  272  55  1013  2021-12-31 14:05:15 
23438  269  273  52  1012  2021-12-31 15:05:13 
23439  261  261  47  1013  2021-12-31 16:05:15 
23440  268  251  53  1012  2021-12-31 17:05:13 
23441  255  241  57  1013  2021-12-31 18:05:15 
23442  248  224  60  1013  2021-12-31 19:05:13 
23443  243  206  60  1015  2021-12-31 20:05:14 
23444  244  196  60  1015  2021-12-31 21:05:16 
23445  241  186  57  1017  2021-12-31 22:05:14 
23446  244  178  60  1017  2021-12-31 23:05:15 
23447  235  181  61  1017  2022-01-01 00:05:13 
23448  231  181  62  1016  2022-01-01 01:05:15 
23449  230  181  63  1016  2022-01-01 02:05:13 
23450  228  176  64  1015  2022-01-01 03:05:14 
23451  227  181  64  1015  2022-01-01 04:05:16 
23452  226  179  65  1015  2022-01-01 05:05:14 
23453  224  176  66  1015  2022-01-01 06:05:15 
23454  222  173  67  1017  2022-01-01 07:05:13 
23455  223  178  70  1016  2022-01-01 08:05:14 
23456  244  232  54  1018  2022-01-01 14:05:14 
23457  246  236  46  1018  2022-01-01 15:05:16 
23458  245  226  50  1018  2022-01-01 16:05:14 
23459  242  231  47  1017  2022-01-01 17:05:16 
23460  239  211  51  1017  2022-01-01 18:05:14 
23461  231  208  50  1018  2022-01-01 19:05:15 
23462  243  201  54  1018  2022-01-01 20:05:13 
23463  242  186  55  1019  2022-01-01 21:05:15 
23464  239  179  56  1020  2022-01-01 22:05:13 
23465  232  173  57  1020  2022-01-01 23:05:15 
23466  228  168  60  1020  2022-01-02 00:05:13 
23467  226  165  61  1020  2022-01-02 01:05:14 
23468  221  165  62  1019  2022-01-02 02:05:16 
23469  220  160  62  1019  2022-01-02 03:05:14 
23470  220  165  63  1019  2022-01-02 04:05:15 
23471  217  160  64  1019  2022-01-02 05:05:13 
23472  216  165  64  1018  2022-01-02 06:05:15 
23473  219  180  64  1019  2022-01-02 07:05:16 
23474  222  196  64  1018  2022-01-02 08:05:14 
23475  229  216  63  1019  2022-01-02 09:05:15 
23476  236  226  63  1018  2022-01-02 10:05:13 
23477  241  239  62  1018  2022-01-02 11:05:15 
23478  241  226  62  1019  2022-01-02 12:05:16 
23479  247  221  61  1018  2022-01-02 13:05:14 
23480  253  241  56  1018  2022-01-02 14:05:16 
23481  262  239  55  1016  2022-01-02 15:05:13 
23482  265  221  56  1016  2022-01-02 16:05:15 
23483  267  216  57  1016  2022-01-02 17:05:13 
23484  260  201  60  1016  2022-01-02 18:05:14 
23485  252  200  61  1016  2022-01-02 19:05:16 
23486  247  191  62  1016  2022-01-02 20:05:14 
23487  251  186  63  1017  2022-01-02 21:05:15 
23488  247  181  63  1018  2022-01-02 22:05:14 
23489  241  176  64  1017  2022-01-02 23:05:15 
23490  233  176  65  1016  2022-01-03 00:05:13 
23491  230  174  65  1016  2022-01-03 01:05:15 
23492  228  170  66  1015  2022-01-03 02:05:16 
23493  226  170  67  1014  2022-01-03 03:05:14 
23494  222  167  70  1014  2022-01-03 04:05:16 
23495  219  165  70  1014  2022-01-03 05:05:14 
23496  219  165  70  1014  2022-01-03 06:05:15 
23497  221  173  72  1014  2022-01-03 07:05:13 
23498  221  181  73  1014  2022-01-03 08:05:15 
23499  257  227  60  1014  2022-01-03 15:05:16 
23500  260  222  56  1014  2022-01-03 16:05:14 
23501  260  211  56  1013  2022-01-03 17:05:15 
23502  253  207  57  1014  2022-01-03 18:05:13 
23503  246  201  61  1013  2022-01-03 19:05:15 
23504  248  191  62  1014  2022-01-03 20:05:17 
23505  247  186  62  1015  2022-01-03 21:05:15 
23506  244  183  62  1014  2022-01-03 22:05:16 
23507  236  181  63  1015  2022-01-03 23:05:14 
23508  231  179  64  1013  2022-01-04 00:05:16 
23509  230  176  65  1014  2022-01-04 01:05:14 
23510  228  176  65  1013  2022-01-04 02:05:15 
23511  227  176  66  1013  2022-01-04 03:05:13 
23512  226  170  67  1013  2022-01-04 04:05:15 
23513  221  170  70  1013  2022-01-04 05:05:16 
23514  217  170  70  1013  2022-01-04 06:05:14 
23515  220  177  71  1013  2022-01-04 07:05:16 
23516  217  188  74  1013  2022-01-04 08:05:14 
23517  224  206  74  1013  2022-01-04 09:05:15 
23518  235  226  72  1013  2022-01-04 10:05:13 
23519  241  249  70  1012  2022-01-04 11:05:15 
23520  249  252  66  1012  2022-01-04 12:05:17 
23521  260  261  64  1013  2022-01-04 13:05:15 
23522  266  271  62  1011  2022-01-04 14:05:16 
23523  270  266  60  1011  2022-01-04 15:05:14 
23524  274  269  57  1011  2022-01-04 16:05:16 
23525  274  261  57  1011  2022-01-04 17:05:14 
23526  263  241  56  1012  2022-01-04 18:05:15 
23527  264  234  56  1013  2022-01-04 19:05:17 
23528  258  214  57  1014  2022-01-04 20:05:15 
23529  259  204  60  1015  2022-01-04 21:05:16 
23530  257  196  60  1015  2022-01-04 22:05:14 
23531  251  189  61  1016  2022-01-04 23:05:15 
23532  244  191  62  1016  2022-01-05 00:05:13 
23533  241  188  63  1016  2022-01-05 01:05:15 
23534  237  186  64  1015  2022-01-05 02:05:17 
23535  236  181  64  1015  2022-01-05 03:05:16 
23536  235  186  65  1016  2022-01-05 04:05:14 
23537  232  181  66  1016  2022-01-05 05:05:15 
23538  229  170  67  1016  2022-01-05 06:05:17 
23539  228  186  67  1016  2022-01-05 07:05:15 
23540  233  201  71  1016  2022-01-05 08:05:16 
23541  241  223  70  1016  2022-01-05 09:05:14 
23542  259  216  64  1017  2022-01-05 15:05:18 
23543  265  226  61  1017  2022-01-05 16:05:16 
23544  259  206  61  1017  2022-01-05 17:05:17 
23545  257  206  60  1016  2022-01-05 18:05:15 
23546  265  196  61  1017  2022-01-05 19:05:17 
23547  258  187  62  1015  2022-01-05 20:05:15 
23548  257  182  62  1016  2022-01-05 21:05:16 
23549  256  181  63  1016  2022-01-05 22:05:14 
23550  242  181  65  1016  2022-01-05 23:05:16 
23551  236  180  66  1015  2022-01-06 00:05:17 
23552  236  176  66  1014  2022-01-06 01:05:15 
23553  233  170  66  1013  2022-01-06 02:05:17 
23554  229  170  67  1013  2022-01-06 03:05:15 
23555  227  160  67  1013  2022-01-06 04:05:16 
23556  225  164  70  1012  2022-01-06 05:05:14 
23557  221  160  70  1014  2022-01-06 06:05:16 
23558  220  170  71  1014  2022-01-06 07:05:18 
23559  226  205  71  1014  2022-01-06 08:05:16 
23560  238  226  71  1014  2022-01-06 09:05:18 
23561  244  236  70  1015  2022-01-06 10:05:16 
23562  253  258  70  1014  2022-01-06 11:05:14 
23563  255  259  71  1015  2022-01-06 12:05:16 
23564  257  251  72  1015  2022-01-06 13:05:14 
23565  254  236  72  1015  2022-01-06 14:05:16 
23566  261  227  65  1014  2022-01-06 15:05:17 
23567  263  217  66  1014  2022-01-06 17:05:17 
23568  259  210  66  1013  2022-01-06 18:05:15 
23569  256  201  67  1015  2022-01-06 19:05:17 
23570  252  191  70  1014  2022-01-06 20:05:15 
23571  249  187  71  1015  2022-01-06 21:05:16 
23572  245  191  72  1016  2022-01-06 22:05:15 
23573  241  196  72  1016  2022-01-06 23:05:16 
23574  241  196  71  1015  2022-01-07 00:05:14 
23575  239  192  71  1015  2022-01-07 01:05:16 
23576  236  185  72  1014  2022-01-07 02:05:18 
23577  234  181  73  1015  2022-01-07 03:05:16 
23578  232  181  74  1015  2022-01-07 04:05:17 
23579  229  181  74  1015  2022-01-07 05:05:15 
23580  228  181  75  1015  2022-01-07 06:05:17 
23581  229  196  76  1015  2022-01-07 07:05:14 
23582  234  216  77  1015  2022-01-07 08:05:16 
23583  242  241  77  1016  2022-01-07 09:05:17 
23584  277  256  66  1012  2022-01-07 16:05:18 
23585  274  246  66  1012  2022-01-07 17:05:15 
23586  267  244  67  1012  2022-01-07 18:05:17 
23587  278  241  70  1012  2022-01-07 19:05:15 
23588  273  238  67  1012  2022-01-07 20:05:16 
23589  272  235  71  1013  2022-01-07 21:05:18 
23590  269  235  71  1014  2022-01-07 22:05:15 
23591  262  230  71  1015  2022-01-07 23:05:17 
23592  260  231  72  1013  2022-01-08 00:05:18 
23593  256  227  72  1014  2022-01-08 01:05:16 
23594  256  221  72  1013  2022-01-08 02:05:17 
23595  257  219  72  1012  2022-01-08 03:05:15 
23596  251  212  73  1011  2022-01-08 04:05:16 
23597  251  206  74  1011  2022-01-08 05:05:18 
23598  246  207  74  1012  2022-01-08 06:05:16 
23599  246  218  74  1013  2022-01-08 07:05:17 
23600  251  241  73  1012  2022-01-08 08:05:15 
23601  261  271  73  1011  2022-01-08 09:05:17 
23602  267  294  71  1010  2022-01-08 10:05:18 
23603  281  305  67  1011  2022-01-08 11:05:16 
23604  285  296  66  1012  2022-01-08 12:05:17 
23605  292  295  66  1010  2022-01-08 13:05:15 
23606  299  300  65  1010  2022-01-08 14:05:16 
23607  305  302  62  1009  2022-01-08 15:05:18 
23608  308  292  62  1009  2022-01-08 16:05:16 
23609  306  286  62  1009  2022-01-08 17:05:18 
23610  306  287  63  1009  2022-01-08 18:05:16 
23611  299  278  64  1008  2022-01-08 19:05:17 
23612  294  271  65  1008  2022-01-08 20:05:15 
23613  293  259  67  1007  2022-01-08 21:05:17 
23614  290  253  72  1009  2022-01-08 22:05:18 
23615  291  251  71  1008  2022-01-08 23:05:16 
23616  285  236  71  1008  2022-01-09 00:05:18 
23617  279  234  72  1008  2022-01-09 01:05:16 
23618  276  223  71  1007  2022-01-09 02:05:17 
23619  272  216  71  1006  2022-01-09 03:05:20 
23620  269  216  71  1007  2022-01-09 04:05:17 
23621  266  211  72  1008  2022-01-09 05:05:19 
23622  264  211  72  1008  2022-01-09 06:05:16 
23623  262  216  72  1009  2022-01-09 07:05:18 
23624  263  234  72  1009  2022-01-09 08:05:16 
23625  269  256  72  1010  2022-01-09 09:05:17 
23626  312  330  63  1008  2022-01-09 13:05:14 
23627  312  330  63  1008  2022-01-09 13:05:26 
23628  314  311  57  1008  2022-01-09 14:05:17 
23629  303  300  60  1009  2022-01-09 15:05:19 
23630  293  276  64  1010  2022-01-09 16:05:17 
23631  295  286  64  1008  2022-01-09 17:05:18 
23632  282  268  65  1009  2022-01-09 18:05:17 
23633  284  262  66  1008  2022-01-09 19:05:18 
23634  287  257  66  1009  2022-01-09 20:05:16 
23635  285  246  64  1008  2022-01-09 21:05:18 
23636  283  242  66  1007  2022-01-09 22:05:16 
23637  274  241  66  1008  2022-01-09 23:05:18 
23638  267  231  67  1008  2022-01-10 00:05:16 
23639  256  221  72  1009  2022-01-10 01:05:18 
23640  260  219  71  1010  2022-01-10 02:05:20 
23641  254  215  72  1009  2022-01-10 03:05:17 
23642  253  214  72  1007  2022-01-10 04:05:19 
23643  255  210  73  1008  2022-01-10 05:05:17 
23644  251  206  73  1009  2022-01-10 06:05:18 
23645  250  206  73  1009  2022-01-10 07:05:16 
23646  249  211  74  1008  2022-01-10 08:05:18 
23647  253  222  74  1009  2022-01-10 09:05:16 
23648  250  234  72  1009  2022-01-10 10:05:18 
23649  265  256  64  1009  2022-01-10 11:05:16 
23650  274  265  62  1010  2022-01-10 12:05:18 
23651  280  273  57  1009  2022-01-10 13:05:19 
23652  280  275  56  1007  2022-01-10 14:05:17 
23653  277  271  56  1008  2022-01-10 15:05:19 
23654  277  261  60  1008  2022-01-10 16:05:17 
23655  278  249  63  1008  2022-01-10 17:05:19 
23656  271  251  66  1009  2022-01-10 18:05:17 
23657  271  241  67  1010  2022-01-10 19:05:18 
23658  270  236  67  1011  2022-01-10 20:05:16 
23659  271  228  70  1011  2022-01-10 21:05:18 
23660  266  226  72  1011  2022-01-10 22:05:16 
23661  261  221  74  1011  2022-01-10 23:05:18 
23662  257  216  74  1011  2022-01-11 00:05:19 
23663  252  209  74  1012  2022-01-11 01:05:17 
23664  250  211  74  1012  2022-01-11 02:05:19 
23665  250  204  75  1012  2022-01-11 03:05:17 
23666  246  196  76  1012  2022-01-11 04:05:19 
23667  244  198  76  1012  2022-01-11 05:05:17 
23668  238  198  76  1013  2022-01-11 06:05:19 
23669  243  203  77  1014  2022-01-11 07:05:17 
23670  244  216  75  1014  2022-01-11 08:05:19 
23671  248  221  76  1015  2022-01-11 09:05:17 
23672  252  228  66  1017  2022-01-11 14:05:19 
23673  253  231  62  1017  2022-01-11 15:05:17 
23674  251  226  61  1016  2022-01-11 16:05:18 
23675  248  219  61  1016  2022-01-11 17:05:20 
23676  253  211  61  1016  2022-01-11 18:05:18 
23677  261  197  61  1018  2022-01-11 19:05:19 
23678  256  187  62  1018  2022-01-11 20:05:17 
23679  251  186  62  1018  2022-01-11 21:05:19 
23680  244  186  63  1018  2022-01-11 22:05:17 
23681  241  181  64  1018  2022-01-11 23:05:18 
23682  238  176  65  1017  2022-01-12 00:05:16 
23683  234  175  65  1016  2022-01-12 01:05:18 
23684  231  172  66  1016  2022-01-12 02:05:20 
23685  230  170  67  1015  2022-01-12 03:05:18 
23686  226  165  70  1015  2022-01-12 04:05:16 
23687  226  165  71  1015  2022-01-12 05:05:18 
23688  224  165  71  1015  2022-01-12 06:05:20 
23689  223  176  72  1015  2022-01-12 07:05:17 
23690  226  191  74  1015  2022-01-12 08:05:19 
23691  237  216  73  1015  2022-01-12 09:05:17 
23692  245  241  71  1015  2022-01-12 10:05:18 
23693  254  261  70  1014  2022-01-12 11:05:20 
23694  262  251  67  1014  2022-01-12 12:05:18 
23695  267  245  65  1014  2022-01-12 13:05:20 
23696  269  252  64  1013  2022-01-12 14:05:17 
23697  273  241  62  1013  2022-01-12 15:05:19 
23698  276  246  62  1013  2022-01-12 16:05:17 
23699  272  235  62  1013  2022-01-12 17:05:19 
23700  271  222  64  1013  2022-01-12 18:05:17 
23701  266  218  63  1013  2022-01-12 19:05:18 
23702  266  211  64  1013  2022-01-12 20:05:20 
23703  262  206  64  1014  2022-01-12 21:05:18 
23704  254  208  63  1014  2022-01-12 22:05:19 
23705  247  201  65  1014  2022-01-12 23:05:17 
23706  243  191  66  1014  2022-01-13 00:05:19 
23707  241  191  70  1013  2022-01-13 01:05:17 
23708  241  191  70  1013  2022-01-13 02:05:19 
23709  238  192  71  1013  2022-01-13 03:05:20 
23710  237  193  71  1012  2022-01-13 04:05:18 
23711  236  196  71  1012  2022-01-13 05:05:20 
23712  235  191  72  1012  2022-01-13 06:05:18 
23713  236  201  72  1012  2022-01-13 07:05:19 
23714  238  219  72  1013  2022-01-13 08:05:17 
23715  246  241  73  1014  2022-01-13 09:05:19 
23716  293  290  64  1013  2022-01-13 15:05:19 
23717  291  269  62  1013  2022-01-13 16:05:18 
23718  294  259  63  1012  2022-01-13 17:05:19 
23719  286  246  62  1013  2022-01-13 18:05:17 
23720  282  246  64  1013  2022-01-13 19:05:19 
23721  271  241  65  1012  2022-01-13 20:05:20 
23722  271  243  66  1012  2022-01-13 21:05:19 
23723  273  236  66  1012  2022-01-13 22:05:20 
23724  267  234  66  1012  2022-01-13 23:05:18 
23725  266  217  66  1012  2022-01-14 00:05:20 
23726  265  216  67  1011  2022-01-14 01:05:19 
23727  262  213  67  1011  2022-01-14 02:05:17 
23728  261  211  70  1010  2022-01-14 03:05:19 
23729  253  211  70  1010  2022-01-14 04:05:21 
23730  255  201  71  1009  2022-01-14 05:05:19 
23731  251  201  71  1009  2022-01-14 06:05:21 
23732  253  207  72  1011  2022-01-14 07:05:18 
23733  255  226  73  1010  2022-01-14 08:05:20 
23734  268  263  72  1010  2022-01-14 09:05:18 
23735  284  296  70  1012  2022-01-14 10:05:20 
23736  288  302  65  1011  2022-01-14 11:05:18 
23737  292  310  64  1011  2022-01-14 12:05:19 
23738  304  316  63  1010  2022-01-14 13:05:17 
23739  310  329  62  1009  2022-01-14 14:05:19 
23740  313  326  61  1010  2022-01-14 15:05:17 
23741  324  321  61  1008  2022-01-14 16:05:19 
23742  318  309  60  1008  2022-01-14 17:05:21 
23743  300  274  61  1009  2022-01-14 18:05:19 
23744  305  281  62  1007  2022-01-14 19:05:21 
23745  302  266  63  1008  2022-01-14 20:05:19 
23746  298  256  63  1008  2022-01-14 21:05:21 
23747  287  251  63  1009  2022-01-14 22:05:19 
23748  279  236  64  1010  2022-01-14 23:05:21 
23749  278  221  65  1008  2022-01-15 00:05:19 
23750  274  217  66  1008  2022-01-15 01:05:21 
23751  266  211  67  1009  2022-01-15 02:05:19 
23752  260  206  70  1009  2022-01-15 03:05:20 
23753  259  201  71  1009  2022-01-15 04:05:18 
23754  253  196  71  1010  2022-01-15 05:05:20 
23755  251  201  72  1010  2022-01-15 06:05:18 
23756  256  209  73  1010  2022-01-15 07:05:19 
23757  259  221  72  1010  2022-01-15 08:05:21 
23758  259  231  72  1010  2022-01-15 09:05:19 
23759  274  266  71  1010  2022-01-15 10:05:20 
23760  315  326  60  1007  2022-01-15 15:05:19 
23761  316  316  57  1007  2022-01-15 16:05:21 
23762  303  306  57  1008  2022-01-15 17:05:19 
23763  293  293  57  1006  2022-01-15 18:05:21 
23764  299  271  60  1008  2022-01-15 19:05:19 
23765  286  251  61  1008  2022-01-15 20:05:20 
23766  285  242  61  1010  2022-01-15 21:05:18 
23767  285  231  65  1012  2022-01-15 22:05:20 
23768  281  230  65  1010  2022-01-15 23:05:18 
23769  277  228  64  1011  2022-01-16 00:05:20 
23770  276  224  64  1011  2022-01-16 01:05:21 
23771  274  216  66  1013  2022-01-16 02:05:19 
23772  268  216  66  1012  2022-01-16 03:05:22 
23773  268  218  67  1011  2022-01-16 04:05:20 
23774  266  219  67  1011  2022-01-16 05:05:22 
23775  265  214  70  1010  2022-01-16 06:05:20 
23776  264  216  70  1011  2022-01-16 07:05:22 
23777  266  226  67  1011  2022-01-16 08:05:20 
23778  268  244  65  1012  2022-01-16 09:05:21 
23779  265  249  65  1011  2022-01-16 10:05:19 
23780  272  258  63  1012  2022-01-16 11:05:21 
23781  280  271  61  1013  2022-01-16 12:05:19 
23782  287  279  61  1013  2022-01-16 13:05:21 
23783  293  283  60  1012  2022-01-16 14:05:18 
23784  299  281  56  1013  2022-01-16 15:05:20 
23785  298  280  54  1014  2022-01-16 16:05:22 
23786  292  276  54  1012  2022-01-16 17:05:20 
23787  291  266  54  1014  2022-01-16 18:05:22 
23788  288  251  57  1014  2022-01-16 19:05:20 
23789  284  241  57  1014  2022-01-16 20:05:22 
23790  276  231  57  1014  2022-01-16 21:05:19 
23791  271  220  61  1017  2022-01-16 22:05:21 
23792  271  212  60  1017  2022-01-16 23:05:19 
23793  264  206  60  1017  2022-01-17 00:05:21 
23794  263  196  61  1017  2022-01-17 01:05:22 
23795  261  191  62  1016  2022-01-17 02:05:20 
23796  259  186  62  1016  2022-01-17 03:05:22 
23797  252  186  62  1016  2022-01-17 04:05:19 
23798  252  181  63  1016  2022-01-17 05:05:21 
23799  247  186  64  1016  2022-01-17 06:05:19 
23800  248  191  66  1016  2022-01-17 07:05:21 
23801  251  217  67  1016  2022-01-17 08:05:19 
23802  258  236  67  1016  24  2022-01-17 09:05:21 
23803  264  246  65  1016  2022-01-17 10:05:22 
23804  285  252  65  1013  2022-01-17 16:05:22 
23805  281  246  66  1013  2022-01-17 17:05:19 
23806  276  241  70  1013  2022-01-17 18:05:21 
23807  266  226  71  1013  2022-01-17 19:05:19 
23808  261  226  72  1012  2022-01-17 20:05:20 
23809  268  221  73  1012  2022-01-17 21:05:22 
23810  273  222  73  1011  2022-01-17 22:05:20 
23811  263  217  72  1012  2022-01-17 23:05:21 
23812  261  210  72  1012  2022-01-18 00:05:23 
23813  256  209  72  1011  2022-01-18 01:05:20 
23814  255  205  73  1011  2022-01-18 02:05:22 
23815  251  201  73  1010  2022-01-18 03:05:19 
23816  247  201  74  1009  2022-01-18 04:05:21 
23817  240  191  75  1011  2022-01-18 05:05:22 
23818  245  202  76  1012  2022-01-18 06:05:20 
23819  241  211  100  1013  2022-01-18 07:05:22 
23820  249  221  100  1013  2022-01-18 08:05:20 
23821  250  228  101  1014  2022-01-18 09:05:21 
23822  247  224  105  1014  2022-01-18 10:05:19 
23823  245  226  105  1014  2022-01-18 11:05:21 
23824  251  226  105  1014  2022-01-18 12:05:22 
23825  257  236  105  1014  2022-01-18 13:05:20 
23826  264  246  101  1015  2022-01-18 14:05:21 
23827  271  260  74  1015  2022-01-18 15:05:19 
23828  274  262  70  1014  2022-01-18 16:05:21 
23829  271  256  65  1016  2022-01-18 17:05:22 
23830  259  230  64  1017  2022-01-18 18:05:20 
23831  247  221  62  1017  2022-01-18 19:05:21 
23832  248  211  63  1018  2022-01-18 20:05:19 
23833  259  202  63  1018  2022-01-18 21:05:21 
23834  252  197  63  1020  2022-01-18 22:05:22 
23835  248  191  64  1020  2022-01-18 23:05:20 
23836  245  183  65  1019  2022-01-19 00:05:21 
23837  243  186  65  1021  2022-01-19 01:05:23 
23838  240  181  65  1020  2022-01-19 02:05:20 
23839  238  171  65  1019  2022-01-19 03:05:22 
23840  234  165  66  1018  2022-01-19 04:05:20 

 

Home